Time;durP1;ratioP1;P1;durP2;ratioP2;P2;SDS_P1;SDS_P2;PMS_P1;PMS_P2;Temp;Humidity;BMP_temperature;BMP_pressure;BME280_temperature;BME280_humidity;BME280_pressure;Samples;Min_cycle;Max_cycle;Signal;HPM_P1;HPM_P2
2022/05/15 00:02:25;;;;;;;12.80;7.37;;;9.20;95.10;;;;;;5000487;28;20483;-49
2022/05/15 00:04:52;;;;;;;12.43;7.30;;;9.20;89.80;;;;;;5009755;28;20583;-49
2022/05/15 00:07:18;;;;;;;16.23;7.30;;;9.10;93.70;;;;;;5004012;28;20896;-49
2022/05/15 00:09:45;;;;;;;8.77;7.00;;;9.10;97.70;;;;;;5006032;28;21041;-48
2022/05/15 00:12:12;;;;;;;12.00;7.30;;;9.20;92.30;;;;;;5004052;28;20571;-48
2022/05/15 00:14:40;;;;;;;9.73;6.80;;;9.00;92.50;;;;;;5003337;28;20495;-49
2022/05/15 00:17:07;;;;;;;12.07;6.73;;;8.90;98.50;;;;;;5003633;28;20558;-48
2022/05/15 00:19:33;;;;;;;15.97;8.07;;;8.90;97.60;;;;;;5005556;28;20581;-48
2022/05/15 00:22:00;;;;;;;15.23;7.47;;;8.80;81.70;;;;;;5007460;28;21621;-49
2022/05/15 00:24:28;;;;;;;11.80;7.53;;;8.80;90.80;;;;;;5003213;28;21279;-48
2022/05/15 00:26:54;;;;;;;13.20;7.07;;;8.80;87.10;;;;;;5005343;28;20558;-48
2022/05/15 00:29:21;;;;;;;10.90;6.97;;;8.70;85.00;;;;;;5006256;28;21033;-49
2022/05/15 00:31:49;;;;;;;13.60;7.43;;;8.80;87.90;;;;;;5001999;28;20491;-48
2022/05/15 00:34:15;;;;;;;16.63;8.23;;;8.70;86.70;;;;;;5006485;28;20542;-48
2022/05/15 00:36:42;;;;;;;19.27;7.27;;;8.60;70.90;;;;;;5006247;28;20556;-49
2022/05/15 00:39:09;;;;;;;14.80;7.73;;;8.70;75.30;;;;;;5003730;28;21140;-49
2022/05/15 00:41:37;;;;;;;8.07;6.83;;;8.70;91.30;;;;;;5003554;28;20601;-49
2022/05/15 00:44:05;;;;;;;10.40;7.50;;;8.50;78.80;;;;;;5005215;28;20471;-49
2022/05/15 00:46:33;;;;;;;12.70;7.27;;;8.40;75.30;;;;;;5008566;28;20562;-49
2022/05/15 00:49:04;;;;;;;11.63;7.03;;;8.50;68.70;;;;;;5008072;28;20550;-49
2022/05/15 00:51:39;;;;;;;11.33;7.13;;;8.50;73.90;;;;;;5013446;28;20851;-49
2022/05/15 00:54:09;;;;;;;9.43;6.70;;;8.50;86.40;;;;;;5006652;28;20551;-48
2022/05/15 00:56:39;;;;;;;14.20;8.10;;;8.50;70.60;;;;;;5005243;28;20548;-48
2022/05/15 00:59:11;;;;;;;8.53;6.90;;;8.40;79.70;;;;;;5011674;28;20555;-48
2022/05/15 01:01:38;;;;;;;8.43;7.00;;;8.40;88.10;;;;;;5009824;28;20550;-49
2022/05/15 01:04:06;;;;;;;11.63;6.93;;;8.30;78.80;;;;;;5010788;28;20930;-48
2022/05/15 01:06:35;;;;;;;11.00;6.83;;;8.20;73.60;;;;;;5012075;28;20554;-48
2022/05/15 01:09:02;;;;;;;12.97;7.13;;;8.30;71.70;;;;;;5003487;28;20464;-48
2022/05/15 01:11:29;;;;;;;11.53;6.43;;;8.20;67.10;;;;;;5007524;28;20574;-49
2022/05/15 01:13:55;;;;;;;12.80;7.33;;;8.20;64.50;;;;;;5012518;28;21099;-49
2022/05/15 01:16:26;;;;;;;7.93;6.37;;;8.20;77.30;;;;;;5008050;28;20583;-48
2022/05/15 01:18:57;;;;;;;17.87;9.03;;;8.20;73.50;;;;;;5008733;28;20472;-49
2022/05/15 01:21:31;;;;;;;7.90;6.47;;;8.10;72.10;;;;;;5005702;28;20878;-49
2022/05/15 01:24:00;;;;;;;14.43;6.20;;;8.10;79.90;;;;;;5003731;28;20479;-49
2022/05/15 01:26:27;;;;;;;15.00;7.50;;;8.10;89.90;;;;;;5005217;28;20460;-49
2022/05/15 01:28:54;;;;;;;9.00;6.97;;;8.00;81.70;;;;;;5021568;28;20545;-49
2022/05/15 01:31:20;;;;;;;10.73;6.80;;;8.00;72.70;;;;;;5007336;28;20546;-49
2022/05/15 01:33:48;;;;;;;11.70;6.50;;;8.00;65.40;;;;;;5008269;28;20562;-49
2022/05/15 01:36:15;;;;;;;10.97;7.73;;;7.90;63.40;;;;;;5007774;28;20482;-49
2022/05/15 01:38:43;;;;;;;12.50;7.63;;;7.90;71.00;;;;;;5005034;28;20531;-49
2022/05/15 01:41:12;;;;;;;8.83;6.90;;;7.90;71.30;;;;;;5010091;28;20554;-49
2022/05/15 01:43:39;;;;;;;11.40;7.60;;;7.90;73.90;;;;;;5005450;28;21079;-49
2022/05/15 01:46:07;;;;;;;11.23;7.70;;;7.80;68.00;;;;;;5001030;28;20574;-49
2022/05/15 01:48:34;;;;;;;10.70;7.33;;;7.80;64.10;;;;;;5000979;28;20550;-49
2022/05/15 01:51:01;;;;;;;12.97;7.97;;;7.80;66.70;;;;;;5005785;28;20463;-49
2022/05/15 01:53:28;;;;;;;11.90;7.43;;;7.90;66.10;;;;;;5006164;28;20566;-49
2022/05/15 01:55:56;;;;;;;11.10;7.47;;;7.90;68.60;;;;;;5011909;28;20495;-48
2022/05/15 01:58:23;;;;;;;10.63;7.43;;;7.80;68.70;;;;;;5004647;28;20572;-48
2022/05/15 02:00:50;;;;;;;8.80;7.60;;;7.70;84.70;;;;;;5001785;28;20491;-48
2022/05/15 02:03:18;;;;;;;11.93;7.77;;;7.70;84.60;;;;;;5010134;28;20541;-49
2022/05/15 02:05:44;;;;;;;14.20;8.80;;;7.70;66.50;;;;;;5013511;28;20463;-49
2022/05/15 02:08:11;;;;;;;8.73;5.47;;;7.60;79.30;;;;;;5002706;28;20564;-49
2022/05/15 02:10:37;;;;;;;10.83;6.07;;;7.60;78.30;;;;;;5008938;28;20543;-48
2022/05/15 02:13:05;;;;;;;9.90;5.90;;;7.70;68.80;;;;;;5008193;28;21188;-48
2022/05/15 02:15:32;;;;;;;10.47;5.90;;;7.80;83.30;;;;;;5007834;28;20550;-48
2022/05/15 02:17:58;;;;;;;9.50;6.40;;;7.70;77.80;;;;;;5001286;28;20547;-50
2022/05/15 02:20:25;;;;;;;6.40;5.67;;;7.70;75.00;;;;;;5009911;28;20590;-49
2022/05/15 02:22:52;;;;;;;11.33;8.00;;;7.60;79.40;;;;;;5008149;28;21059;-49
2022/05/15 02:25:18;;;;;;;12.03;9.43;;;7.40;82.70;;;;;;5013061;28;20495;-49
2022/05/15 02:27:46;;;;;;;12.50;8.70;;;7.50;80.00;;;;;;5007415;28;20547;-49
2022/05/15 02:30:16;;;;;;;13.03;8.13;;;7.40;84.60;;;;;;5004656;28;20467;-48
2022/05/15 02:32:42;;;;;;;10.27;8.00;;;7.40;68.70;;;;;;5001320;28;20590;-49
2022/05/15 02:35:11;;;;;;;8.93;6.93;;;7.30;80.70;;;;;;5012650;28;20892;-49
2022/05/15 02:37:38;;;;;;;10.27;7.27;;;7.30;68.80;;;;;;5005863;28;20550;-48
2022/05/15 02:40:07;;;;;;;12.30;7.30;;;7.30;83.60;;;;;;5010199;28;20542;-48
2022/05/15 02:42:33;;;;;;;9.90;6.43;;;7.40;65.20;;;;;;5007380;28;20484;-49
2022/05/15 02:45:00;;;;;;;7.17;5.87;;;7.20;84.40;;;;;;5006355;28;20484;-48
2022/05/15 02:47:28;;;;;;;7.90;6.30;;;7.20;78.20;;;;;;5004731;28;20570;-49
2022/05/15 02:52:38;;;;;;;12.57;5.73;;;7.30;76.70;;;;;;5003395;28;20973;-49
2022/05/15 02:55:06;;;;;;;8.13;5.10;;;7.30;82.10;;;;;;5005166;28;20456;-49
2022/05/15 02:57:33;;;;;;;7.30;5.07;;;7.30;87.90;;;;;;5006438;28;20464;-49
2022/05/15 02:59:59;;;;;;;4.97;4.60;;;7.20;77.50;;;;;;5009450;28;20479;-49
2022/05/15 03:02:26;;;;;;;11.00;6.07;;;7.10;74.80;;;;;;5002789;28;20519;-48
2022/05/15 03:04:54;;;;;;;9.97;6.63;;;7.00;77.80;;;;;;5006854;28;20574;-50
2022/05/15 03:07:20;;;;;;;7.27;5.60;;;6.90;73.10;;;;;;5004359;28;20464;-49
2022/05/15 03:09:47;;;;;;;12.90;5.40;;;7.10;69.60;;;;;;5007521;28;20550;-49
2022/05/15 03:12:14;;;;;;;8.57;5.13;;;7.10;80.70;;;;;;5007257;28;20538;-50
2022/05/15 03:14:40;;;;;;;20.47;6.53;;;7.10;79.60;;;;;;5005118;28;20908;-48
2022/05/15 03:17:07;;;;;;;13.90;7.73;;;7.00;75.80;;;;;;5008110;28;20534;-49
2022/05/15 03:19:33;;;;;;;10.50;7.43;;;7.00;65.60;;;;;;5008484;28;20514;-49
2022/05/15 03:22:01;;;;;;;10.13;7.23;;;7.00;78.20;;;;;;5009813;28;20606;-49
2022/05/15 03:24:27;;;;;;;10.10;8.10;;;6.90;71.40;;;;;;5005445;28;20567;-49
2022/05/15 03:26:54;;;;;;;9.90;7.80;;;6.90;61.00;;;;;;5011263;28;20554;-49
2022/05/15 03:29:21;;;;;;;9.30;7.83;;;6.90;74.20;;;;;;5002558;28;20563;-49
2022/05/15 03:31:48;;;;;;;13.60;7.90;;;7.00;66.40;;;;;;5000044;28;21014;-49
2022/05/15 03:34:17;;;;;;;13.00;7.87;;;7.00;76.10;;;;;;5002159;28;21021;-49
2022/05/15 03:36:45;;;;;;;11.93;7.30;;;6.90;76.60;;;;;;5005648;28;20455;-53
2022/05/15 03:39:14;;;;;;;68.13;49.13;;;6.80;70.60;;;;;;5006835;28;20543;-52
2022/05/15 03:41:41;;;;;;;9.33;6.70;;;6.90;76.20;;;;;;5004009;28;20470;-52
2022/05/15 03:44:09;;;;;;;14.53;7.30;;;6.90;61.90;;;;;;5005211;28;20491;-52
2022/05/15 03:46:36;;;;;;;11.63;6.73;;;7.00;72.60;;;;;;5004030;28;20468;-53
2022/05/15 03:49:02;;;;;;;7.70;6.43;;;6.90;73.30;;;;;;5007400;28;20495;-52
2022/05/15 03:51:29;;;;;;;10.60;6.10;;;6.90;76.70;;;;;;5005650;28;20470;-53
2022/05/15 03:53:56;;;;;;;13.43;8.30;;;6.90;64.40;;;;;;5006780;28;20574;-53
2022/05/15 03:59:04;;;;;;;9.47;5.80;;;6.80;63.00;;;;;;5005114;28;20907;-53
2022/05/15 04:01:30;;;;;;;11.43;5.73;;;6.90;60.70;;;;;;5003165;28;20556;-53
2022/05/15 04:03:58;;;;;;;8.77;5.87;;;6.90;48.30;;;;;;5006512;28;20582;-53
2022/05/15 04:06:25;;;;;;;9.37;5.60;;;7.10;49.00;;;;;;5002979;28;21008;-52
2022/05/15 04:08:52;;;;;;;9.67;6.53;;;7.10;57.70;;;;;;5005163;28;20904;-52
2022/05/15 04:11:19;;;;;;;8.00;6.07;;;7.10;63.30;;;;;;5002526;28;20570;-53
2022/05/15 04:13:46;;;;;;;6.83;6.07;;;7.20;61.70;;;;;;5005269;28;20587;-53
2022/05/15 04:16:13;;;;;;;7.30;5.20;;;7.20;61.10;;;;;;5001417;28;20554;-52
2022/05/15 04:18:40;;;;;;;7.40;5.97;;;7.30;64.70;;;;;;5000856;28;20471;-53
2022/05/15 04:21:07;;;;;;;7.90;6.13;;;7.30;65.30;;;;;;5007674;28;20551;-53
2022/05/15 04:23:33;;;;;;;7.37;6.07;;;7.40;65.90;;;;;;5009802;28;21009;-53
2022/05/15 04:26:00;;;;;;;9.20;6.83;;;7.40;66.90;;;;;;5013519;28;20497;-52
2022/05/15 04:28:26;;;;;;;7.00;6.00;;;7.50;64.40;;;;;;5006369;28;20567;-52
2022/05/15 04:30:54;;;;;;;9.57;6.23;;;7.50;63.70;;;;;;5010082;28;20557;-52
2022/05/15 04:33:21;;;;;;;10.27;6.10;;;7.50;61.40;;;;;;5009625;28;20590;-52
2022/05/15 04:35:47;;;;;;;9.40;6.13;;;7.70;58.20;;;;;;5011978;28;21033;-53
2022/05/15 04:38:14;;;;;;;7.93;5.30;;;7.70;59.70;;;;;;5001131;28;20546;-53
2022/05/15 04:40:40;;;;;;;9.90;5.03;;;7.80;58.10;;;;;;5008762;28;20550;-52
2022/05/15 04:43:07;;;;;;;7.63;5.63;;;7.90;55.30;;;;;;5009684;28;20571;-53
2022/05/15 04:45:34;;;;;;;8.90;5.80;;;8.00;52.80;;;;;;5000465;28;20864;-52
2022/05/15 04:48:02;;;;;;;9.43;6.50;;;8.10;51.50;;;;;;5010196;28;20521;-53
2022/05/15 04:50:28;;;;;;;14.07;5.53;;;8.20;47.00;;;;;;5012003;28;20550;-53
2022/05/15 04:52:55;;;;;;;11.27;5.50;;;8.40;35.10;;;;;;5011174;28;20574;-53
2022/05/15 04:55:21;;;;;;;9.80;5.40;;;8.60;36.60;;;;;;5010361;28;20456;-52
2022/05/15 04:57:48;;;;;;;8.63;4.80;;;8.70;43.30;;;;;;5007821;28;20538;-53
2022/05/15 05:00:17;;;;;;;7.53;4.53;;;8.80;47.10;;;;;;5006896;28;20563;-52
2022/05/15 05:02:44;;;;;;;10.50;5.43;;;8.90;51.50;;;;;;5004224;28;20822;-53
2022/05/15 05:05:12;;;;;;;9.00;4.43;;;9.00;56.90;;;;;;5004090;28;20559;-53
2022/05/15 05:07:39;;;;;;;7.70;4.90;;;9.10;57.50;;;;;;5008308;28;21065;-53
2022/05/15 05:10:08;;;;;;;8.47;5.10;;;9.20;61.60;;;;;;5000371;28;21013;-53
2022/05/15 05:12:36;;;;;;;8.70;4.57;;;9.20;64.70;;;;;;5003181;28;20503;-52
2022/05/15 05:15:02;;;;;;;10.57;5.37;;;9.40;60.70;;;;;;5000455;28;20526;-52
2022/05/15 05:17:29;;;;;;;6.43;4.60;;;9.50;63.20;;;;;;5011990;28;20534;-53
2022/05/15 05:19:56;;;;;;;11.33;4.67;;;9.60;66.40;;;;;;5008428;28;20562;-53
2022/05/15 05:22:24;;;;;;;6.97;4.10;;;9.70;71.90;;;;;;5007579;28;21044;-53
2022/05/15 05:24:50;;;;;;;11.33;4.27;;;9.80;82.60;;;;;;5006871;28;20571;-52
2022/05/15 05:27:17;;;;;;;8.33;5.40;;;9.90;82.40;;;;;;5005439;28;20560;-53
2022/05/15 05:29:43;;;;;;;5.57;3.50;;;10.10;85.80;;;;;;5003572;28;21029;-53
2022/05/15 05:32:10;;;;;;;10.00;4.53;;;10.20;86.90;;;;;;5008927;28;20566;-53
2022/05/15 05:34:37;;;;;;;16.30;4.20;;;10.30;92.90;;;;;;5001717;28;20492;-52
2022/05/15 05:37:04;;;;;;;7.80;3.33;;;10.40;98.50;;;;;;5009309;28;20452;-53
2022/05/15 05:39:32;;;;;;;5.70;3.60;;;10.40;99.90;;;;;;5005501;28;20558;-53
2022/05/15 05:41:59;;;;;;;7.90;4.07;;;10.50;99.90;;;;;;5005506;28;20578;-53
2022/05/15 05:44:26;;;;;;;8.97;3.90;;;10.60;99.90;;;;;;5011602;28;21128;-53
2022/05/15 05:46:53;;;;;;;11.47;4.63;;;10.70;99.90;;;;;;5011473;28;20505;-52
2022/05/15 05:49:20;;;;;;;7.40;3.67;;;10.80;99.90;;;;;;5010449;28;20554;-53
2022/05/15 05:51:46;;;;;;;8.50;3.87;;;10.80;99.90;;;;;;5009339;28;20579;-53
2022/05/15 05:54:13;;;;;;;5.73;3.40;;;10.90;99.90;;;;;;5008925;28;21029;-53
2022/05/15 05:56:41;;;;;;;8.90;3.70;;;10.90;99.90;;;;;;5006594;28;21021;-53
2022/05/15 05:59:07;;;;;;;8.00;3.70;;;11.00;99.90;;;;;;5000416;28;20554;-53
2022/05/15 06:01:34;;;;;;;6.30;3.53;;;11.00;99.90;;;;;;5007878;28;20550;-52
2022/05/15 06:06:45;;;;;;;9.10;2.90;;;11.20;99.90;;;;;;5006966;28;20474;-53
2022/05/15 06:09:11;;;;;;;29.37;21.73;;;11.30;99.90;;;;;;5007013;28;20550;-52
2022/05/15 06:11:38;;;;;;;51.47;36.13;;;11.40;99.90;;;;;;5007782;28;20554;-52
2022/05/15 06:14:05;;;;;;;21.80;16.20;;;11.40;99.90;;;;;;5000559;28;21123;-51
2022/05/15 06:16:32;;;;;;;7.90;3.30;;;11.50;99.90;;;;;;5010110;28;20574;-51
2022/05/15 06:18:59;;;;;;;7.27;3.50;;;11.50;99.90;;;;;;5001178;28;20470;-52
2022/05/15 06:21:26;;;;;;;6.10;3.50;;;11.60;99.90;;;;;;5007088;28;20878;-53
2022/05/15 06:23:53;;;;;;;20.23;13.83;;;11.70;99.90;;;;;;5007420;28;20891;-53
2022/05/15 06:26:19;;;;;;;23.23;16.53;;;11.70;99.90;;;;;;5010272;28;20519;-54
2022/05/15 06:28:46;;;;;;;12.73;11.10;;;11.80;99.90;;;;;;5007549;28;20555;-52
2022/05/15 06:31:14;;;;;;;12.00;4.87;;;11.80;99.90;;;;;;5011190;28;20551;-52
2022/05/15 06:33:40;;;;;;;13.60;2.70;;;11.90;99.90;;;;;;5010210;28;20568;-51
2022/05/15 06:36:07;;;;;;;8.80;3.13;;;12.00;99.90;;;;;;5013589;28;20530;-52
2022/05/15 06:38:34;;;;;;;8.47;2.60;;;12.10;99.90;;;;;;5003945;28;20472;-52
2022/05/15 06:41:00;;;;;;;19.27;2.87;;;12.20;99.90;;;;;;5005895;28;20529;-52
2022/05/15 06:43:27;;;;;;;5.00;3.20;;;12.30;99.90;;;;;;5008681;28;20483;-52
2022/05/15 06:45:53;;;;;;;5.90;2.50;;;12.30;99.90;;;;;;5005823;28;20562;-53
2022/05/15 06:48:21;;;;;;;8.43;2.93;;;12.40;99.90;;;;;;5006738;28;20566;-53
2022/05/15 06:50:49;;;;;;;4.50;2.70;;;12.50;99.90;;;;;;5004686;28;20926;-53
2022/05/15 06:53:16;;;;;;;5.60;3.13;;;12.50;99.90;;;;;;5007139;28;20498;-53
2022/05/15 06:58:24;;;;;;;8.33;3.30;;;12.60;99.90;;;;;;5002811;28;20457;-53
2022/05/15 07:00:50;;;;;;;2.90;2.10;;;12.70;99.90;;;;;;5000198;28;20465;-52
2022/05/15 07:03:17;;;;;;;9.50;2.70;;;12.80;99.90;;;;;;5002015;28;20534;-53
2022/05/15 07:05:46;;;;;;;5.40;2.47;;;13.00;99.90;;;;;;5002291;28;20499;-53
2022/05/15 07:08:15;;;;;;;3.37;2.37;;;13.10;99.90;;;;;;5008882;28;20528;-52
2022/05/15 07:10:41;;;;;;;3.40;2.07;;;13.20;99.90;;;;;;5003773;28;20463;-52
2022/05/15 07:13:08;;;;;;;2.60;2.00;;;13.40;28.20;;;;;;4998988;28;20520;-53
2022/05/15 07:15:36;;;;;;;6.03;2.30;;;13.50;42.60;;;;;;5006216;28;21212;-52
2022/05/15 07:18:03;;;;;;;8.93;3.20;;;13.60;41.40;;;;;;5002116;28;20459;-52
2022/05/15 07:20:30;;;;;;;4.90;2.40;;;13.70;51.10;;;;;;4999050;28;20471;-53
2022/05/15 07:22:58;;;;;;;2.13;1.93;;;13.70;62.90;;;;;;4997649;28;20839;-53
2022/05/15 07:25:25;;;;;;;2.10;1.70;;;13.70;64.90;;;;;;4999534;28;20507;-53
2022/05/15 07:27:52;;;;;;;2.67;1.83;;;13.80;61.20;;;;;;4992534;28;20468;-53
2022/05/15 07:30:18;;;;;;;4.60;1.67;;;13.90;65.10;;;;;;4997975;28;20460;-52
2022/05/15 07:32:45;;;;;;;6.27;2.17;;;13.90;76.80;;;;;;4998455;28;20594;-53
2022/05/15 07:35:12;;;;;;;5.97;1.70;;;14.00;82.40;;;;;;4998749;28;20465;-53
2022/05/15 07:37:39;;;;;;;3.83;2.27;;;14.00;84.60;;;;;;5001755;28;20507;-53
2022/05/15 07:40:08;;;;;;;4.27;1.80;;;14.20;80.10;;;;;;4991497;28;20606;-53
2022/05/15 07:42:36;;;;;;;10.83;2.00;;;14.30;83.90;;;;;;4998213;28;20566;-54
2022/05/15 07:45:03;;;;;;;1.73;1.50;;;14.40;86.30;;;;;;5002578;28;20485;-52
2022/05/15 07:47:30;;;;;;;11.67;1.83;;;14.50;95.70;;;;;;4996562;28;20487;-53
2022/05/15 07:49:58;;;;;;;3.40;1.80;;;14.50;99.90;;;;;;4995270;28;20941;-54
2022/05/15 07:52:25;;;;;;;3.87;1.93;;;14.70;99.90;;;;;;4994617;28;20515;-54
2022/05/15 07:54:52;;;;;;;5.57;1.70;;;14.70;99.90;;;;;;4999252;28;20475;-53
2022/05/15 07:57:20;;;;;;;5.63;1.73;;;14.80;99.90;;;;;;5002942;28;20811;-52
2022/05/15 07:59:46;;;;;;;3.00;1.43;;;14.80;99.90;;;;;;4989694;28;20951;-53
2022/05/15 08:02:13;;;;;;;2.40;1.40;;;14.90;99.90;;;;;;4992205;28;20494;-53
2022/05/15 08:10:07;;;;;;;4.17;1.60;;;15.20;99.90;;;;;;5001187;28;20973;-54
2022/05/15 08:12:35;;;;;;;6.27;1.43;;;15.30;99.90;;;;;;4992457;28;20491;-53
2022/05/15 08:15:02;;;;;;;3.53;1.93;;;15.40;99.90;;;;;;5003810;28;20468;-53
2022/05/15 08:17:28;;;;;;;99.70;42.63;;;15.50;99.90;;;;;;5004534;28;20546;-52
2022/05/15 08:25:23;;;;;;;4.53;1.80;;;15.70;99.90;;;;;;5003074;28;20478;-53
2022/05/15 08:27:51;;;;;;;3.27;1.57;;;15.80;99.90;;;;;;4992203;28;21224;-54
2022/05/15 08:30:19;;;;;;;2.27;1.03;;;15.80;99.90;;;;;;4999339;28;20561;-54
2022/05/15 08:32:46;;;;;;;2.93;1.10;;;15.90;99.90;;;;;;5000033;28;20477;-52
2022/05/15 08:35:13;;;;;;;4.73;1.73;;;16.00;99.90;;;;;;4995654;28;20514;-52
2022/05/15 08:37:42;;;;;;;2.10;1.17;;;16.10;99.90;;;;;;4996128;28;20543;-53
2022/05/15 08:40:10;;;;;;;1.50;1.37;;;16.10;99.90;;;;;;5002271;28;20550;-54
2022/05/15 08:42:42;;;;;;;3.30;1.57;;;16.10;99.90;;;;;;5007987;28;20850;-52
2022/05/15 08:45:14;;;;;;;2.40;1.20;;;16.10;99.90;;;;;;4999210;28;20467;-53
2022/05/15 08:47:45;;;;;;;2.10;1.27;;;16.20;99.90;;;;;;5009349;28;20487;-53
2022/05/15 08:50:15;;;;;;;2.20;1.20;;;16.30;99.90;;;;;;5002409;28;20469;-53
2022/05/15 08:52:48;;;;;;;3.10;1.90;;;16.40;99.90;;;;;;4992509;28;20527;-53
2022/05/15 08:55:19;;;;;;;3.27;1.33;;;16.50;99.90;;;;;;5002231;28;20468;-53
2022/05/15 08:57:52;;;;;;;1.63;1.27;;;16.60;1.40;;;;;;4995721;28;20591;-54
2022/05/15 09:00:25;;;;;;;1.80;1.10;;;16.70;99.90;;;;;;5001980;28;20487;-53
2022/05/15 09:02:51;;;;;;;5.23;1.17;;;16.90;99.90;;;;;;4989129;28;20485;-52
2022/05/15 09:05:18;;;;;;;3.50;1.20;;;17.10;99.90;;;;;;5001869;28;20932;-54
2022/05/15 09:07:58;;;;;;;3.40;2.10;;;17.30;99.90;;;;;;5003867;28;20841;-55
2022/05/15 09:10:33;;;;;;;3.00;1.63;;;17.40;99.90;;;;;;5008331;28;20865;-53
2022/05/15 09:13:11;;;;;;;4.10;1.70;;;17.60;99.90;;;;;;5006115;28;20478;-53
2022/05/15 09:15:50;;;;;;;1.33;0.93;;;17.70;99.90;;;;;;5003969;28;20454;-52
2022/05/15 09:18:18;;;;;;;1.50;1.00;;;17.60;99.90;;;;;;5000533;28;20471;-53
2022/05/15 09:20:56;;;;;;;1.57;1.20;;;17.40;99.90;;;;;;5005617;28;20468;-54
2022/05/15 09:23:26;;;;;;;1.70;1.03;;;17.40;99.90;;;;;;5003486;28;21169;-53
2022/05/15 09:25:55;;;;;;;4.87;1.57;;;17.60;99.90;;;;;;5004999;28;22544;-53
2022/05/15 09:28:26;;;;;;;5.30;1.47;;;17.60;99.90;;;;;;5005186;28;20468;-53
2022/05/15 09:30:58;;;;;;;2.57;0.97;;;17.80;99.90;;;;;;5001486;28;20984;-53
2022/05/15 09:33:30;;;;;;;0.90;0.90;;;17.80;99.90;;;;;;5006059;28;20546;-53
2022/05/15 09:36:17;;;;;;;1.43;1.27;;;17.90;99.90;;;;;;5005226;28;20550;-52
2022/05/15 09:38:43;;;;;;;1.60;0.80;;;18.00;99.90;;;;;;5000405;28;20464;-53
2022/05/15 09:43:57;;;;;;;10.00;1.10;;;18.30;99.90;;;;;;5003256;28;20479;-53
2022/05/15 09:46:27;;;;;;;1.37;0.90;;;18.10;99.90;;;;;;4999666;28;20512;-53
2022/05/15 09:48:57;;;;;;;1.17;0.70;;;18.10;99.90;;;;;;5005515;28;20463;-52
2022/05/15 09:51:31;;;;;;;2.33;1.10;;;18.30;99.90;;;;;;5000777;28;20545;-52
2022/05/15 09:53:58;;;;;;;4.20;1.03;;;18.40;99.90;;;;;;5010172;23;20488;-52
2022/05/15 09:56:30;;;;;;;1.43;1.00;;;18.50;99.90;;;;;;5002772;28;20957;-52
2022/05/15 09:59:00;;;;;;;1.10;1.00;;;18.60;99.90;;;;;;5004321;28;20521;-51
2022/05/15 10:01:36;;;;;;;1.33;1.23;;;18.70;99.90;;;;;;5003483;28;20526;-52
2022/05/15 10:04:05;;;;;;;0.90;0.80;;;18.60;99.90;;;;;;5009304;28;20811;-52
2022/05/15 10:06:37;;;;;;;1.40;0.97;;;18.60;99.90;;;;;;5005513;28;20484;-53
2022/05/15 10:09:13;;;;;;;7.40;0.93;;;18.60;99.90;;;;;;5009601;28;20499;-53
2022/05/15 10:11:43;;;;;;;1.33;0.90;;;18.80;99.90;;;;;;5008471;28;20459;-51
2022/05/15 10:14:23;;;;;;;1.07;0.73;;;18.90;99.90;;;;;;5006314;28;20534;-51
2022/05/15 10:16:53;;;;;;;2.47;0.90;;;19.20;99.90;;;;;;5007002;28;20973;-50
2022/05/15 10:19:28;;;;;;;1.50;0.80;;;19.00;99.90;;;;;;5007256;28;20460;-52
2022/05/15 10:22:02;;;;;;;1.30;0.80;;;19.20;99.90;;;;;;5007494;28;20463;-51
2022/05/15 10:24:32;;;;;;;6.60;2.30;;;19.30;99.90;;;;;;5009308;28;20561;-51
2022/05/15 10:27:04;;;;;;;3.60;0.93;;;19.30;99.90;;;;;;5006337;28;20471;-51
2022/05/15 10:29:38;;;;;;;1.80;0.97;;;19.40;99.90;;;;;;5006004;28;20559;-51
2022/05/15 10:32:11;;;;;;;5.00;2.73;;;19.40;99.90;;;;;;5006908;28;20472;-51
2022/05/15 10:34:38;;;;;;;1.80;0.73;;;19.10;99.90;;;;;;5008691;28;20518;-51
2022/05/15 10:37:45;;;;;;;1.00;0.73;;;19.00;99.90;;;;;;5000947;28;20980;-51
2022/05/15 10:40:23;;;;;;;9.60;1.20;;;19.10;99.90;;;;;;4997263;28;20468;-52
2022/05/15 10:43:13;;;;;;;1.63;0.80;;;19.30;99.90;;;;;;5005598;28;20458;-52
2022/05/15 10:45:48;;;;;;;1.63;1.03;;;19.40;99.90;;;;;;5002273;28;20553;-52
2022/05/15 10:48:47;;;;;;;2.30;1.00;;;19.50;99.90;;;;;;5008877;28;20484;-52
2022/05/15 10:51:41;;;;;;;;;;;;;;;;;;;;;
2022/05/15 10:57:26;;;;;;;1.17;0.80;;;19.80;99.90;;;;;;5008980;28;20435;-52
2022/05/15 11:00:29;;;;;;;2.10;1.30;;;19.80;99.90;;;;;;5006322;28;20478;-52
2022/05/15 11:03:23;;;;;;;1.70;1.00;;;19.80;99.90;;;;;;5006139;28;20459;-52
2022/05/15 11:06:24;;;;;;;1.90;0.90;;;19.50;99.90;;;;;;5009012;28;21068;-51
2022/05/15 11:08:57;;;;;;;2.63;1.70;;;19.30;99.90;;;;;;5009411;28;20873;-51
2022/05/15 11:11:42;;;;;;;1.40;1.30;;;19.10;99.90;;;;;;5006212;28;20492;-54
2022/05/15 11:14:17;;;;;;;1.53;1.20;;;19.30;99.90;;;;;;5007398;28;20880;-53
2022/05/15 11:16:52;;;;;;;3.50;1.10;;;19.50;99.90;;;;;;5004635;28;20451;-53
2022/05/15 11:19:31;;;;;;;3.27;0.93;;;19.70;99.90;;;;;;5006386;28;20517;-53
2022/05/15 11:22:07;;;;;;;1.30;1.00;;;19.60;99.90;;;;;;5006113;28;20483;-53
2022/05/15 11:24:43;;;;;;;1.20;1.20;;;19.70;99.90;;;;;;5002073;28;20507;-52
2022/05/15 11:27:29;;;;;;;1.40;1.30;;;19.80;99.90;;;;;;5001266;28;20475;-52
2022/05/15 11:30:03;;;;;;;1.70;1.10;;;19.80;99.90;;;;;;5003326;28;20461;-52
2022/05/15 11:32:40;;;;;;;1.93;1.13;;;19.90;99.90;;;;;;5006375;28;20466;-51
2022/05/15 11:35:26;;;;;;;1.50;1.40;;;19.90;99.90;;;;;;5002084;28;20483;-51
2022/05/15 11:38:11;;;;;;;1.30;1.20;;;19.70;99.90;;;;;;5009008;28;20514;-51
2022/05/15 11:40:40;;;;;;;4.00;1.50;;;19.80;99.90;;;;;;5005403;28;20455;-51
2022/05/15 11:43:44;;;;;;;1.90;0.83;;;20.10;99.90;;;;;;4999786;28;20509;-52
2022/05/15 11:46:11;;;;;;;1.00;0.77;;;20.30;99.90;;;;;;5003128;28;20516;-51
2022/05/15 11:48:53;;;;;;;4.20;1.17;;;20.10;99.90;;;;;;5006873;28;20467;-52
2022/05/15 11:51:28;;;;;;;2.50;0.80;;;20.30;99.90;;;;;;5006214;28;20463;-51
2022/05/15 11:53:58;;;;;;;2.20;1.10;;;20.40;99.90;;;;;;5004091;28;20463;-51
2022/05/15 11:56:28;;;;;;;3.07;1.13;;;20.80;99.90;;;;;;5002275;28;20463;-51
2022/05/15 11:58:58;;;;;;;4.67;0.87;;;20.80;99.90;;;;;;5001471;28;21287;-52
2022/05/15 12:01:49;;;;;;;5.97;1.27;;;21.00;99.90;;;;;;5007348;28;20530;-51
2022/05/15 12:05:01;;;;;;;3.37;1.20;;;20.90;99.90;;;;;;5004407;28;20479;-51
2022/05/15 12:07:32;;;;;;;3.00;1.10;;;20.90;99.90;;;;;;5004568;28;20472;-51
2022/05/15 12:10:00;;;;;;;1.20;1.10;;;20.90;99.90;;;;;;5002474;28;20957;-51
2022/05/15 12:12:52;;;;;;;2.50;1.13;;;20.90;99.90;;;;;;5003071;28;20470;-51
2022/05/15 12:15:34;;;;;;;1.33;1.00;;;20.90;99.90;;;;;;5001133;28;20491;-51
2022/05/15 12:18:11;;;;;;;1.30;1.10;;;21.00;99.90;;;;;;5000850;28;20456;-53
2022/05/15 12:20:47;;;;;;;1.00;1.00;;;21.00;99.90;;;;;;5002343;28;20455;-52
2022/05/15 12:23:17;;;;;;;2.60;1.20;;;21.00;99.90;;;;;;5000174;28;20463;-51
2022/05/15 12:25:54;;;;;;;1.93;1.17;;;21.10;99.90;;;;;;5004454;28;20834;-51
2022/05/15 12:31:14;;;;;;;3.20;1.17;;;21.00;99.90;;;;;;5006864;28;20976;-51
2022/05/15 12:33:41;;;;;;;2.80;1.20;;;20.80;99.90;;;;;;5001436;28;20521;-52
2022/05/15 12:36:12;;;;;;;5.90;0.80;;;20.60;99.90;;;;;;5001075;28;20468;-51
2022/05/15 12:38:45;;;;;;;1.87;1.00;;;20.50;99.90;;;;;;4999799;28;20522;-51
2022/05/15 12:41:19;;;;;;;1.70;1.00;;;20.50;99.90;;;;;;5001201;28;20805;-52
2022/05/15 12:43:49;;;;;;;1.47;0.70;;;20.60;99.90;;;;;;5008984;28;20460;-51
2022/05/15 12:46:24;;;;;;;1.93;1.03;;;20.80;99.90;;;;;;5009360;28;20514;-50
2022/05/15 12:48:51;;;;;;;2.33;1.23;;;21.00;99.90;;;;;;5008726;28;20807;-51
2022/05/15 12:51:26;;;;;;;0.70;0.70;;;21.10;99.90;;;;;;5005555;28;20968;-50
2022/05/15 12:53:53;;;;;;;1.27;1.17;;;21.10;99.90;;;;;;5007585;28;20478;-51
2022/05/15 12:56:25;;;;;;;0.87;0.87;;;21.30;99.90;;;;;;5007336;28;20479;-51
2022/05/15 12:58:56;;;;;;;2.37;1.23;;;21.40;99.90;;;;;;5004959;28;20456;-52
2022/05/15 13:01:26;;;;;;;1.10;1.00;;;21.60;99.90;;;;;;5003376;28;20470;-52
2022/05/15 13:03:56;;;;;;;1.47;1.10;;;21.60;99.90;;;;;;5005256;28;20546;-51
2022/05/15 13:06:30;;;;;;;1.07;0.90;;;21.60;99.90;;;;;;5013928;28;20500;-53
2022/05/15 13:09:01;;;;;;;2.93;1.13;;;21.70;99.90;;;;;;5005434;28;20466;-52
2022/05/15 13:11:37;;;;;;;0.90;0.90;;;21.70;99.90;;;;;;5007929;28;20850;-51
2022/05/15 13:14:04;;;;;;;2.83;1.30;;;21.60;99.90;;;;;;4998080;28;20608;-51
2022/05/15 13:16:31;;;;;;;1.20;1.03;;;21.50;99.90;;;;;;5006362;28;21015;-51
2022/05/15 13:18:59;;;;;;;1.47;1.30;;;21.70;99.90;;;;;;5012754;28;20469;-52
2022/05/15 13:21:32;;;;;;;2.10;1.20;;;21.70;99.90;;;;;;5002181;28;20460;-51
2022/05/15 13:23:59;;;;;;;3.37;1.30;;;21.80;99.90;;;;;;5006657;28;20830;-53
2022/05/15 13:26:34;;;;;;;9.63;1.40;;;21.90;99.90;;;;;;5005076;28;20518;-52
2022/05/15 13:29:02;;;;;;;3.20;1.53;;;22.00;99.90;;;;;;5003833;28;20550;-52
2022/05/15 13:31:32;;;;;;;8.07;1.37;;;21.90;99.90;;;;;;5001472;28;22472;-52
2022/05/15 13:33:59;;;;;;;2.77;1.60;;;21.80;99.90;;;;;;5007354;28;20482;-52